Time,TemperatureF,DewpointF,PressureIn,WindDirection,WindDirectionDegrees,WindSpeedMPH,WindSpeedGustMPH,Humidity,HourlyPrecipIn,Conditions,Clouds,dailyrainin,SoftwareType,DateUTC
2013-01-01 00:03:00,56.0,52.0,30.11,North,360,0.0,0.0,86,0.00,,,0.02,,2013-01-01 05:03:00,
2013-01-01 00:12:00,56.0,52.0,30.11,North,360,0.0,0.0,86,0.00,,,0.02,,2013-01-01 05:12:00,
2013-01-01 00:22:00,55.0,51.0,30.11,North,360,0.0,0.0,87,0.00,,,0.02,,2013-01-01 05:22:00,
2013-01-01 00:33:00,56.0,52.0,30.11,NNE,12,1.0,1.0,87,0.00,,,0.02,,2013-01-01 05:33:00,
2013-01-01 00:42:00,56.0,52.0,30.11,NNE,12,1.0,1.0,87,0.00,,,0.02,,2013-01-01 05:42:00,
2013-01-01 00:53:00,56.0,52.0,30.11,North,360,0.0,0.0,87,0.00,,,0.02,,2013-01-01 05:53:00,
2013-01-01 01:02:00,55.0,51.0,30.11,North,360,0.0,0.0,87,0.00,,,0.02,,2013-01-01 06:02:00,
2013-01-01 01:12:00,55.0,51.0,30.11,North,360,0.0,0.0,87,0.00,,,0.02,,2013-01-01 06:12:00,
2013-01-01 01:22:00,55.0,51.0,30.11,North,360,0.0,0.0,87,0.00,,,0.02,,2013-01-01 06:22:00,
2013-01-01 01:32:00,55.0,52.0,30.11,NNE,12,0.0,0.0,88,0.00,,,0.02,,2013-01-01 06:32:00,
2013-01-01 01:42:00,55.0,52.0,30.11,NNE,12,0.0,0.0,88,0.00,,,0.02,,2013-01-01 06:42:00,
2013-01-01 01:52:00,55.0,51.0,30.09,North,360,0.0,0.0,87,0.00,,,0.02,,2013-01-01 06:52:00,
2013-01-01 02:02:00,55.0,52.0,30.09,North,360,0.0,0.0,88,0.00,,,0.02,,2013-01-01 07:02:00,
2013-01-01 02:12:00,55.0,52.0,30.08,North,360,0.0,0.0,88,0.00,,,0.02,,2013-01-01 07:12:00,
2013-01-01 02:22:00,55.0,52.0,30.08,North,360,0.0,0.0,88,0.00,,,0.02,,2013-01-01 07:22:00,
2013-01-01 02:32:00,55.0,52.0,30.08,North,360,0.0,0.0,88,0.00,,,0.02,,2013-01-01 07:32:00,
2013-01-01 02:42:00,55.0,52.0,30.08,North,360,0.0,0.0,88,0.00,,,0.02,,2013-01-01 07:42:00,
2013-01-01 02:53:00,54.0,51.0,30.08,North,360,0.0,0.0,88,0.01,,,0.03,,2013-01-01 07:53:00,
2013-01-01 03:02:00,54.0,51.0,30.06,North,360,0.0,0.0,89,0.01,,,0.03,,2013-01-01 08:02:00,
2013-01-01 03:12:00,54.0,51.0,30.06,North,360,0.0,0.0,89,0.01,,,0.03,,2013-01-01 08:12:00,
2013-01-01 03:22:00,54.0,51.0,30.06,North,360,0.0,0.0,90,0.01,,,0.03,,2013-01-01 08:22:00,
2013-01-01 03:32:00,55.0,52.0,30.06,North,360,0.0,0.0,90,0.01,,,0.03,,2013-01-01 08:32:00,
2013-01-01 03:42:00,55.0,52.0,30.05,North,360,0.0,0.0,90,0.00,,,0.03,,2013-01-01 08:42:00,
2013-01-01 03:53:00,55.0,52.0,30.05,North,360,0.0,0.0,90,0.00,,,0.03,,2013-01-01 08:53:00,
2013-01-01 04:02:00,55.0,52.0,30.05,North,360,0.0,0.0,90,0.00,,,0.03,,2013-01-01 09:02:00,
2013-01-01 04:12:00,55.0,52.0,30.05,North,360,0.0,0.0,90,0.00,,,0.03,,2013-01-01 09:12:00,
2013-01-01 04:22:00,55.0,52.0,30.05,North,360,0.0,0.0,91,0.00,,,0.03,,2013-01-01 09:22:00,
2013-01-01 04:32:00,55.0,52.0,30.05,North,360,0.0,0.0,91,0.00,,,0.03,,2013-01-01 09:32:00,
2013-01-01 04:42:00,55.0,52.0,30.05,North,360,0.0,0.0,91,0.00,,,0.03,,2013-01-01 09:42:00,
2013-01-01 04:52:00,55.0,53.0,30.04,North,360,0.0,0.0,92,0.00,,,0.03,,2013-01-01 09:52:00,
2013-01-01 05:02:00,55.0,53.0,30.04,North,360,0.0,0.0,92,0.00,,,0.03,,2013-01-01 10:02:00,
2013-01-01 05:12:00,55.0,53.0,30.03,North,360,0.0,0.0,93,0.00,,,0.03,,2013-01-01 10:12:00,
2013-01-01 05:22:00,55.0,53.0,30.03,North,360,0.0,0.0,93,0.00,,,0.03,,2013-01-01 10:22:00,
2013-01-01 05:33:00,55.0,53.0,30.03,North,360,0.0,0.0,92,0.00,,,0.03,,2013-01-01 10:33:00,
2013-01-01 05:42:00,55.0,53.0,30.03,North,360,0.0,0.0,92,0.00,,,0.03,,2013-01-01 10:42:00,
2013-01-01 05:53:00,55.0,53.0,30.03,North,360,0.0,0.0,93,0.00,,,0.03,,2013-01-01 10:53:00,
2013-01-01 06:02:00,55.0,53.0,30.03,North,360,0.0,0.0,94,0.00,,,0.03,,2013-01-01 11:02:00,
2013-01-01 06:12:00,55.0,53.0,30.03,North,360,0.0,0.0,94,0.00,,,0.03,,2013-01-01 11:12:00,
2013-01-01 06:23:00,55.0,53.0,30.02,North,360,0.0,0.0,94,0.00,,,0.03,,2013-01-01 11:23:00,
2013-01-01 06:33:00,55.0,53.0,30.02,North,360,0.0,0.0,94,0.00,,,0.03,,2013-01-01 11:33:00,
2013-01-01 06:42:00,55.0,53.0,30.02,North,360,0.0,0.0,94,0.00,,,0.03,,2013-01-01 11:42:00,
2013-01-01 06:53:00,55.0,54.0,30.02,North,360,0.0,0.0,95,0.00,,,0.03,,2013-01-01 11:53:00,
2013-01-01 07:02:00,55.0,54.0,30.02,North,360,0.0,0.0,95,0.01,,,0.04,,2013-01-01 12:02:00,
2013-01-01 07:12:00,55.0,54.0,30.02,North,360,0.0,0.0,95,0.01,,,0.04,,2013-01-01 12:12:00,
2013-01-01 07:22:00,55.0,54.0,30.04,North,360,0.0,0.0,95,0.01,,,0.04,,2013-01-01 12:22:00,
2013-01-01 07:33:00,55.0,54.0,30.04,North,360,0.0,0.0,95,0.01,,,0.04,,2013-01-01 12:33:00,
2013-01-01 07:43:00,55.0,54.0,30.04,North,360,0.0,0.0,95,0.01,,,0.04,,2013-01-01 12:43:00,
2013-01-01 07:53:00,54.0,53.0,30.05,North,360,0.0,0.0,96,0.01,,,0.04,,2013-01-01 12:53:00,
2013-01-01 08:03:00,54.0,53.0,30.05,North,360,0.0,0.0,96,0.00,,,0.04,,2013-01-01 13:03:00,
2013-01-01 08:12:00,54.0,53.0,30.05,North,360,0.0,0.0,96,0.00,,,0.04,,2013-01-01 13:12:00,
2013-01-01 08:22:00,55.0,54.0,30.05,North,360,0.0,0.0,96,0.00,,,0.04,,2013-01-01 13:22:00,
2013-01-01 08:33:00,55.0,54.0,30.05,North,360,0.0,0.0,96,0.00,,,0.04,,2013-01-01 13:33:00,
2013-01-01 08:42:00,55.0,54.0,30.05,North,360,0.0,0.0,96,0.00,,,0.04,,2013-01-01 13:42:00,
2013-01-01 08:53:00,56.0,55.0,30.04,North,360,0.0,0.0,97,0.00,,,0.04,,2013-01-01 13:53:00,
2013-01-01 09:02:00,57.0,56.0,30.05,North,360,0.0,0.0,97,0.00,,,0.04,,2013-01-01 14:02:00,
2013-01-01 09:12:00,57.0,56.0,30.05,North,360,0.0,0.0,97,0.00,,,0.04,,2013-01-01 14:12:00,
2013-01-01 09:22:00,58.0,57.0,30.05,North,360,0.0,0.0,97,0.01,,,0.05,,2013-01-01 14:22:00,
2013-01-01 09:32:00,59.0,58.0,30.05,North,360,0.0,0.0,96,0.01,,,0.05,,2013-01-01 14:32:00,
2013-01-01 09:42:00,59.0,58.0,30.05,North,360,0.0,0.0,96,0.01,,,0.05,,2013-01-01 14:42:00,
2013-01-01 09:53:00,61.0,60.0,30.05,North,360,0.0,2.0,95,0.01,,,0.04,,2013-01-01 14:53:00,
2013-01-01 10:03:00,63.0,60.0,30.05,South,170,0.0,0.0,91,0.01,,,0.04,,2013-01-01 15:03:00,
2013-01-01 10:12:00,64.0,60.0,30.05,South,179,2.0,2.0,86,0.01,,,0.05,,2013-01-01 15:12:00,
2013-01-01 10:22:00,64.0,60.0,30.05,South,179,2.0,2.0,86,0.01,,,0.05,,2013-01-01 15:22:00,
2013-01-01 10:33:00,65.0,60.0,30.05,North,360,0.0,0.0,84,0.01,,,0.05,,2013-01-01 15:33:00,
2013-01-01 10:42:00,65.0,60.0,30.05,North,360,0.0,0.0,84,0.01,,,0.05,,2013-01-01 15:42:00,
2013-01-01 10:53:00,66.0,60.0,30.05,South,183,0.0,3.0,81,0.01,,,0.05,,2013-01-01 15:53:00,
2013-01-01 11:02:00,67.0,60.0,30.05,South,176,0.0,0.0,78,0.01,,,0.05,,2013-01-01 16:02:00,
2013-01-01 11:12:00,67.0,60.0,30.05,South,176,0.0,0.0,78,0.01,,,0.05,,2013-01-01 16:12:00,
2013-01-01 11:22:00,69.0,61.0,30.05,SSW,195,3.0,3.0,76,0.00,,,0.05,,2013-01-01 16:22:00,
2013-01-01 11:33:00,70.0,61.0,30.04,South,178,1.0,2.0,73,0.00,,,0.05,,2013-01-01 16:33:00,
2013-01-01 11:42:00,70.0,61.0,30.04,South,178,1.0,2.0,73,0.00,,,0.05,,2013-01-01 16:42:00,
2013-01-01 11:53:00,71.0,60.0,30.04,South,175,4.0,4.0,69,0.00,,,0.05,,2013-01-01 16:53:00,
2013-01-01 12:02:00,72.0,61.0,30.03,South,169,1.0,2.0,69,0.00,,,0.05,,2013-01-01 17:02:00,
2013-01-01 12:12:00,72.0,61.0,30.03,South,169,1.0,2.0,69,0.00,,,0.05,,2013-01-01 17:12:00,
2013-01-01 12:22:00,73.0,61.0,30.02,WSW,244,1.0,3.0,67,0.00,,,0.05,,2013-01-01 17:22:00,
2013-01-01 12:33:00,74.0,61.0,30.02,South,171,3.0,3.0,64,0.00,,,0.05,,2013-01-01 17:33:00,
2013-01-01 12:43:00,74.0,61.0,30.02,South,171,3.0,3.0,64,0.00,,,0.05,,2013-01-01 17:43:00,
2013-01-01 12:53:00,75.0,61.0,30.00,South,181,9.0,9.0,61,0.00,,,0.05,,2013-01-01 17:53:00,
2013-01-01 13:03:00,74.0,59.0,30.00,SSE,167,8.0,10.0,60,0.00,,,0.05,,2013-01-01 18:03:00,
2013-01-01 13:12:00,74.0,59.0,30.00,SSE,167,8.0,10.0,60,0.00,,,0.05,,2013-01-01 18:12:00,
2013-01-01 13:23:00,74.0,58.0,29.99,South,175,4.0,9.0,58,0.00,,,0.05,,2013-01-01 18:23:00,
2013-01-01 13:33:00,75.0,59.0,29.98,South,177,7.0,14.0,58,0.00,,,0.05,,2013-01-01 18:33:00,
2013-01-01 13:42:00,75.0,59.0,29.98,South,177,7.0,14.0,58,0.00,,,0.05,,2013-01-01 18:42:00,
2013-01-01 13:53:00,75.0,59.0,29.98,South,177,7.0,14.0,58,0.00,,,0.05,,2013-01-01 18:53:00,
2013-01-01 14:02:00,75.0,59.0,29.96,SSE,161,6.0,7.0,58,0.00,,,0.05,,2013-01-01 19:02:00,
2013-01-01 14:12:00,75.0,59.0,29.96,SSE,161,6.0,7.0,58,0.00,,,0.05,,2013-01-01 19:12:00,
2013-01-01 14:22:00,75.0,59.0,29.96,SSE,166,8.0,8.0,57,0.00,,,0.05,,2013-01-01 19:22:00,
2013-01-01 14:33:00,75.0,59.0,29.95,South,174,4.0,4.0,58,0.00,,,0.05,,2013-01-01 19:33:00,
2013-01-01 14:42:00,75.0,59.0,29.95,South,174,4.0,4.0,58,0.00,,,0.05,,2013-01-01 19:42:00,
2013-01-01 14:53:00,75.0,58.0,29.94,SSE,166,6.0,7.0,56,0.00,,,0.05,,2013-01-01 19:53:00,
2013-01-01 15:02:00,75.0,58.0,29.94,SSE,161,7.0,7.0,56,0.00,,,0.05,,2013-01-01 20:02:00,
2013-01-01 15:12:00,75.0,58.0,29.94,SSE,161,7.0,7.0,56,0.00,,,0.05,,2013-01-01 20:12:00,
2013-01-01 15:23:00,75.0,58.0,29.94,South,181,5.0,7.0,56,0.00,,,0.05,,2013-01-01 20:23:00,
2013-01-01 15:32:00,75.0,58.0,29.95,South,175,4.0,4.0,55,0.00,,,0.05,,2013-01-01 20:32:00,
2013-01-01 15:42:00,75.0,58.0,29.95,South,175,4.0,4.0,55,0.00,,,0.05,,2013-01-01 20:42:00,
2013-01-01 15:53:00,75.0,58.0,29.95,South,183,6.0,6.0,55,0.00,,,0.05,,2013-01-01 20:53:00,
2013-01-01 16:03:00,75.0,58.0,29.95,South,183,5.0,5.0,56,0.00,,,0.05,,2013-01-01 21:03:00,
2013-01-01 16:13:00,74.0,58.0,29.95,South,179,6.0,6.0,57,0.00,,,0.05,,2013-01-01 21:13:00,
2013-01-01 16:22:00,74.0,58.0,29.95,South,179,6.0,6.0,57,0.00,,,0.05,,2013-01-01 21:22:00,
2013-01-01 16:33:00,74.0,58.0,29.95,South,181,4.0,4.0,57,0.00,,,0.05,,2013-01-01 21:33:00,
2013-01-01 16:42:00,74.0,58.0,29.95,South,181,4.0,4.0,57,0.00,,,0.05,,2013-01-01 21:42:00,
2013-01-01 16:53:00,74.0,58.0,29.95,South,174,0.0,2.0,58,0.00,,,0.05,,2013-01-01 21:53:00,
2013-01-01 17:03:00,73.0,57.0,29.95,South,187,3.0,3.0,58,0.00,,,0.05,,2013-01-01 22:03:00,
2013-01-01 17:12:00,73.0,57.0,29.95,South,187,3.0,3.0,58,0.00,,,0.05,,2013-01-01 22:12:00,
2013-01-01 17:22:00,73.0,58.0,29.95,South,178,3.0,3.0,59,0.00,,,0.05,,2013-01-01 22:22:00,
2013-01-01 17:33:00,73.0,58.0,29.95,North,360,0.0,3.0,60,0.00,,,0.05,,2013-01-01 22:33:00,
2013-01-01 17:42:00,73.0,58.0,29.95,North,360,0.0,3.0,60,0.00,,,0.05,,2013-01-01 22:42:00,
2013-01-01 17:53:00,72.0,57.0,29.95,SSE,168,1.0,2.0,60,0.00,,,0.05,,2013-01-01 22:53:00,
2013-01-01 18:03:00,72.0,58.0,29.96,North,360,0.0,0.0,61,0.00,,,0.05,,2013-01-01 23:03:00,
2013-01-01 18:12:00,72.0,58.0,29.96,North,360,0.0,0.0,61,0.00,,,0.05,,2013-01-01 23:12:00,
2013-01-01 18:22:00,72.0,58.0,29.95,South,190,3.0,3.0,62,0.00,,,0.05,,2013-01-01 23:22:00,
2013-01-01 18:32:00,71.0,57.0,29.95,South,182,0.0,1.0,62,0.00,,,0.05,,2013-01-01 23:32:00,
2013-01-01 18:42:00,71.0,57.0,29.95,South,182,0.0,1.0,62,0.00,,,0.05,,2013-01-01 23:42:00,
2013-01-01 18:52:00,71.0,58.0,29.96,North,360,0.0,1.0,63,0.00,,,0.05,,2013-01-01 23:52:00,
2013-01-01 19:02:00,70.0,57.0,29.95,North,360,0.0,1.0,64,0.00,,,0.05,,2013-01-02 00:02:00,
2013-01-01 19:12:00,70.0,57.0,29.95,North,360,0.0,1.0,64,0.00,,,0.05,,2013-01-02 00:12:00,
2013-01-01 19:22:00,70.0,58.0,29.96,South,172,0.0,0.0,65,0.00,,,0.05,,2013-01-02 00:22:00,
2013-01-01 19:32:00,69.0,57.0,29.96,North,360,0.0,0.0,66,0.00,,,0.05,,2013-01-02 00:32:00,
2013-01-01 19:42:00,69.0,57.0,29.96,North,360,0.0,0.0,66,0.00,,,0.05,,2013-01-02 00:42:00,
2013-01-01 19:53:00,69.0,58.0,29.96,North,360,0.0,0.0,68,0.00,,,0.05,,2013-01-02 00:53:00,
2013-01-01 20:02:00,68.0,57.0,29.96,North,360,0.0,0.0,68,0.00,,,0.04,,2013-01-02 01:02:00,
2013-01-01 20:12:00,68.0,57.0,29.96,North,360,0.0,0.0,68,0.00,,,0.04,,2013-01-02 01:12:00,
2013-01-01 20:22:00,68.0,57.0,29.96,North,360,0.0,0.0,69,0.00,,,0.04,,2013-01-02 01:22:00,
2013-01-01 20:32:00,67.0,57.0,29.96,North,360,0.0,0.0,71,0.00,,,0.04,,2013-01-02 01:32:00,
2013-01-01 20:42:00,67.0,57.0,29.96,North,360,0.0,0.0,71,0.00,,,0.04,,2013-01-02 01:42:00,
2013-01-01 20:52:00,67.0,57.0,29.96,North,360,0.0,0.0,71,0.00,,,0.04,,2013-01-02 01:52:00,
2013-01-01 21:02:00,67.0,58.0,29.95,North,360,0.0,0.0,73,0.00,,,0.04,,2013-01-02 02:02:00,
2013-01-01 21:12:00,67.0,58.0,29.95,North,360,0.0,0.0,73,0.00,,,0.04,,2013-01-02 02:12:00,
2013-01-01 21:22:00,67.0,58.0,29.96,South,176,2.0,2.0,73,0.00,,,0.04,,2013-01-02 02:22:00,
2013-01-01 21:32:00,66.0,57.0,29.95,North,360,0.0,0.0,73,0.00,,,0.04,,2013-01-02 02:32:00,
2013-01-01 21:42:00,66.0,57.0,29.95,North,360,0.0,0.0,73,0.00,,,0.04,,2013-01-02 02:42:00,
2013-01-01 21:53:00,66.0,57.0,29.95,South,185,2.0,2.0,74,0.00,,,0.04,,2013-01-02 02:53:00,
2013-01-01 22:02:00,66.0,57.0,29.95,North,360,0.0,1.0,74,0.00,,,0.04,,2013-01-02 03:02:00,
2013-01-01 22:12:00,66.0,57.0,29.95,North,360,0.0,1.0,74,0.00,,,0.04,,2013-01-02 03:12:00,
2013-01-01 22:22:00,66.0,57.0,29.95,North,360,0.0,2.0,74,0.00,,,0.04,,2013-01-02 03:22:00,
2013-01-01 22:32:00,66.0,58.0,29.95,South,183,1.0,1.0,75,0.00,,,0.04,,2013-01-02 03:32:00,
2013-01-01 22:42:00,66.0,58.0,29.95,South,183,1.0,1.0,75,0.00,,,0.04,,2013-01-02 03:42:00,
2013-01-01 22:53:00,66.0,58.0,29.96,SSE,167,3.0,3.0,75,0.00,,,0.04,,2013-01-02 03:53:00,
2013-01-01 23:02:00,66.0,58.0,29.95,South,188,0.0,2.0,75,0.00,,,0.04,,2013-01-02 04:02:00,
2013-01-01 23:12:00,66.0,58.0,29.95,South,188,0.0,2.0,75,0.00,,,0.04,,2013-01-02 04:12:00,
2013-01-01 23:22:00,66.0,58.0,29.95,South,174,2.0,2.0,76,0.00,,,0.04,,2013-01-02 04:22:00,
2013-01-01 23:32:00,66.0,59.0,29.94,South,173,2.0,2.0,77,0.00,,,0.04,,2013-01-02 04:32:00,
2013-01-01 23:42:00,66.0,59.0,29.94,South,173,2.0,2.0,77,0.00,,,0.04,,2013-01-02 04:42:00,
2013-01-01 23:52:00,66.0,59.0,29.94,North,360,0.0,0.0,77,0.00,,,0.04,,2013-01-02 04:52:00,